sensor_id;sensor_type;location;lat;lon;timestamp;P1;durP1;ratioP1;P2;durP2;ratioP2
18286;SDS011;9269;50.838;12.094;2023-06-26T00:00:59;11.73;;;10.50;;
18286;SDS011;9269;50.838;12.094;2023-06-26T00:03:30;14.00;;;12.40;;
18286;SDS011;9269;50.838;12.094;2023-06-26T00:06:00;13.67;;;12.37;;
18286;SDS011;9269;50.838;12.094;2023-06-26T00:08:29;14.03;;;12.53;;
18286;SDS011;9269;50.838;12.094;2023-06-26T00:10:59;12.10;;;10.73;;
18286;SDS011;9269;50.838;12.094;2023-06-26T00:13:29;13.50;;;11.77;;
18286;SDS011;9269;50.838;12.094;2023-06-26T00:15:59;14.37;;;12.67;;
18286;SDS011;9269;50.838;12.094;2023-06-26T00:18:33;14.77;;;12.47;;
18286;SDS011;9269;50.838;12.094;2023-06-26T00:21:03;16.93;;;14.30;;
18286;SDS011;9269;50.838;12.094;2023-06-26T00:23:32;14.93;;;13.60;;
18286;SDS011;9269;50.838;12.094;2023-06-26T00:26:06;14.70;;;13.17;;
18286;SDS011;9269;50.838;12.094;2023-06-26T00:28:36;13.87;;;12.57;;
18286;SDS011;9269;50.838;12.094;2023-06-26T00:31:08;14.57;;;13.17;;
18286;SDS011;9269;50.838;12.094;2023-06-26T00:33:39;13.43;;;12.13;;
18286;SDS011;9269;50.838;12.094;2023-06-26T00:36:10;13.17;;;11.87;;
18286;SDS011;9269;50.838;12.094;2023-06-26T00:38:39;11.27;;;9.70;;
18286;SDS011;9269;50.838;12.094;2023-06-26T00:41:09;11.73;;;10.10;;
18286;SDS011;9269;50.838;12.094;2023-06-26T00:43:42;11.10;;;10.17;;
18286;SDS011;9269;50.838;12.094;2023-06-26T00:46:13;11.40;;;10.00;;
18286;SDS011;9269;50.838;12.094;2023-06-26T00:48:45;13.17;;;11.87;;
18286;SDS011;9269;50.838;12.094;2023-06-26T00:51:20;12.17;;;10.97;;
18286;SDS011;9269;50.838;12.094;2023-06-26T00:53:51;14.83;;;13.03;;
18286;SDS011;9269;50.838;12.094;2023-06-26T00:56:22;12.00;;;10.80;;
18286;SDS011;9269;50.838;12.094;2023-06-26T00:58:54;12.23;;;11.03;;
18286;SDS011;9269;50.838;12.094;2023-06-26T01:01:25;13.60;;;12.17;;
18286;SDS011;9269;50.838;12.094;2023-06-26T01:03:56;14.67;;;12.20;;
18286;SDS011;9269;50.838;12.094;2023-06-26T01:06:29;13.13;;;12.03;;
18286;SDS011;9269;50.838;12.094;2023-06-26T01:09:03;14.07;;;12.47;;
18286;SDS011;9269;50.838;12.094;2023-06-26T01:11:33;12.73;;;11.53;;
18286;SDS011;9269;50.838;12.094;2023-06-26T01:14:02;13.60;;;12.20;;
18286;SDS011;9269;50.838;12.094;2023-06-26T01:16:33;14.30;;;12.83;;
18286;SDS011;9269;50.838;12.094;2023-06-26T01:19:07;15.53;;;13.87;;
18286;SDS011;9269;50.838;12.094;2023-06-26T01:21:43;13.57;;;12.23;;
18286;SDS011;9269;50.838;12.094;2023-06-26T01:24:16;13.17;;;11.70;;
18286;SDS011;9269;50.838;12.094;2023-06-26T01:26:50;13.87;;;12.10;;
18286;SDS011;9269;50.838;12.094;2023-06-26T01:29:22;13.07;;;11.67;;
18286;SDS011;9269;50.838;12.094;2023-06-26T01:31:56;12.53;;;11.23;;
18286;SDS011;9269;50.838;12.094;2023-06-26T01:34:26;13.43;;;12.03;;
18286;SDS011;9269;50.838;12.094;2023-06-26T01:36:58;13.90;;;11.77;;
18286;SDS011;9269;50.838;12.094;2023-06-26T01:39:29;14.37;;;12.87;;
18286;SDS011;9269;50.838;12.094;2023-06-26T01:42:00;13.37;;;11.70;;
18286;SDS011;9269;50.838;12.094;2023-06-26T01:44:29;12.87;;;11.67;;
18286;SDS011;9269;50.838;12.094;2023-06-26T01:47:03;11.93;;;10.73;;
18286;SDS011;9269;50.838;12.094;2023-06-26T01:49:35;10.87;;;9.80;;
18286;SDS011;9269;50.838;12.094;2023-06-26T01:52:15;10.73;;;9.63;;
18286;SDS011;9269;50.838;12.094;2023-06-26T01:54:53;9.77;;;8.87;;
18286;SDS011;9269;50.838;12.094;2023-06-26T01:57:27;8.73;;;8.03;;
18286;SDS011;9269;50.838;12.094;2023-06-26T01:59:57;8.60;;;7.80;;
18286;SDS011;9269;50.838;12.094;2023-06-26T02:02:28;9.27;;;7.43;;
18286;SDS011;9269;50.838;12.094;2023-06-26T02:04:58;8.37;;;7.57;;
18286;SDS011;9269;50.838;12.094;2023-06-26T02:07:29;7.97;;;7.17;;
18286;SDS011;9269;50.838;12.094;2023-06-26T02:09:59;7.70;;;7.00;;
18286;SDS011;9269;50.838;12.094;2023-06-26T02:12:31;7.20;;;6.60;;
18286;SDS011;9269;50.838;12.094;2023-06-26T02:15:01;7.03;;;6.43;;
18286;SDS011;9269;50.838;12.094;2023-06-26T02:17:32;6.77;;;6.27;;
18286;SDS011;9269;50.838;12.094;2023-06-26T02:20:03;7.83;;;7.13;;
18286;SDS011;9269;50.838;12.094;2023-06-26T02:22:38;6.73;;;6.13;;
18286;SDS011;9269;50.838;12.094;2023-06-26T02:25:09;6.70;;;6.10;;
18286;SDS011;9269;50.838;12.094;2023-06-26T02:27:43;7.03;;;6.43;;
18286;SDS011;9269;50.838;12.094;2023-06-26T02:30:12;7.10;;;6.50;;
18286;SDS011;9269;50.838;12.094;2023-06-26T02:32:40;7.20;;;6.50;;
18286;SDS011;9269;50.838;12.094;2023-06-26T02:35:10;7.43;;;6.53;;
18286;SDS011;9269;50.838;12.094;2023-06-26T02:37:40;8.30;;;6.33;;
18286;SDS011;9269;50.838;12.094;2023-06-26T02:40:11;6.70;;;6.03;;
18286;SDS011;9269;50.838;12.094;2023-06-26T02:42:43;6.60;;;6.10;;
18286;SDS011;9269;50.838;12.094;2023-06-26T02:45:15;7.27;;;6.57;;
18286;SDS011;9269;50.838;12.094;2023-06-26T02:47:46;6.90;;;6.30;;
18286;SDS011;9269;50.838;12.094;2023-06-26T02:50:17;7.03;;;6.43;;
18286;SDS011;9269;50.838;12.094;2023-06-26T02:52:49;7.03;;;6.43;;
18286;SDS011;9269;50.838;12.094;2023-06-26T02:55:19;6.87;;;6.27;;
18286;SDS011;9269;50.838;12.094;2023-06-26T02:57:50;7.00;;;6.40;;
18286;SDS011;9269;50.838;12.094;2023-06-26T03:00:19;7.77;;;7.07;;
18286;SDS011;9269;50.838;12.094;2023-06-26T03:02:49;8.33;;;6.57;;
18286;SDS011;9269;50.838;12.094;2023-06-26T03:05:19;7.17;;;6.47;;
18286;SDS011;9269;50.838;12.094;2023-06-26T03:07:50;6.90;;;6.20;;
18286;SDS011;9269;50.838;12.094;2023-06-26T03:10:19;7.33;;;6.10;;
18286;SDS011;9269;50.838;12.094;2023-06-26T03:12:50;7.57;;;6.53;;
18286;SDS011;9269;50.838;12.094;2023-06-26T03:15:19;6.30;;;5.80;;
18286;SDS011;9269;50.838;12.094;2023-06-26T03:17:49;6.90;;;6.20;;
18286;SDS011;9269;50.838;12.094;2023-06-26T03:20:19;7.40;;;6.80;;
18286;SDS011;9269;50.838;12.094;2023-06-26T03:22:49;7.23;;;5.90;;
18286;SDS011;9269;50.838;12.094;2023-06-26T03:25:19;7.57;;;6.63;;
18286;SDS011;9269;50.838;12.094;2023-06-26T03:27:50;6.97;;;6.37;;
18286;SDS011;9269;50.838;12.094;2023-06-26T03:30:21;7.00;;;6.40;;
18286;SDS011;9269;50.838;12.094;2023-06-26T03:32:52;6.87;;;6.13;;
18286;SDS011;9269;50.838;12.094;2023-06-26T03:35:24;8.07;;;7.27;;
18286;SDS011;9269;50.838;12.094;2023-06-26T03:37:55;7.57;;;6.97;;
18286;SDS011;9269;50.838;12.094;2023-06-26T03:40:26;10.20;;;8.13;;
18286;SDS011;9269;50.838;12.094;2023-06-26T03:42:57;8.30;;;6.73;;
18286;SDS011;9269;50.838;12.094;2023-06-26T03:45:29;8.33;;;7.47;;
18286;SDS011;9269;50.838;12.094;2023-06-26T03:47:59;7.77;;;6.93;;
18286;SDS011;9269;50.838;12.094;2023-06-26T03:50:29;7.00;;;6.40;;
18286;SDS011;9269;50.838;12.094;2023-06-26T03:52:57;8.77;;;6.53;;
18286;SDS011;9269;50.838;12.094;2023-06-26T03:55:28;9.43;;;7.33;;
18286;SDS011;9269;50.838;12.094;2023-06-26T03:57:59;7.57;;;6.87;;
18286;SDS011;9269;50.838;12.094;2023-06-26T04:00:29;7.50;;;6.67;;
18286;SDS011;9269;50.838;12.094;2023-06-26T04:02:59;6.67;;;6.07;;
18286;SDS011;9269;50.838;12.094;2023-06-26T04:05:32;7.23;;;6.60;;
18286;SDS011;9269;50.838;12.094;2023-06-26T04:08:04;8.83;;;7.80;;
18286;SDS011;9269;50.838;12.094;2023-06-26T04:10:32;8.97;;;7.13;;
18286;SDS011;9269;50.838;12.094;2023-06-26T04:13:03;8.63;;;7.73;;
18286;SDS011;9269;50.838;12.094;2023-06-26T04:15:33;7.47;;;6.67;;
18286;SDS011;9269;50.838;12.094;2023-06-26T04:18:04;9.07;;;8.17;;
18286;SDS011;9269;50.838;12.094;2023-06-26T04:20:32;8.80;;;8.10;;
18286;SDS011;9269;50.838;12.094;2023-06-26T04:23:08;9.27;;;8.43;;
18286;SDS011;9269;50.838;12.094;2023-06-26T04:25:39;10.23;;;8.87;;
18286;SDS011;9269;50.838;12.094;2023-06-26T04:28:10;9.43;;;8.53;;
18286;SDS011;9269;50.838;12.094;2023-06-26T04:30:39;8.50;;;7.70;;
18286;SDS011;9269;50.838;12.094;2023-06-26T04:33:10;8.57;;;7.77;;
18286;SDS011;9269;50.838;12.094;2023-06-26T04:35:38;8.33;;;7.60;;
18286;SDS011;9269;50.838;12.094;2023-06-26T04:38:09;7.80;;;7.13;;
18286;SDS011;9269;50.838;12.094;2023-06-26T04:40:39;7.57;;;6.87;;
18286;SDS011;9269;50.838;12.094;2023-06-26T04:43:10;7.30;;;6.70;;
18286;SDS011;9269;50.838;12.094;2023-06-26T04:45:42;7.40;;;6.70;;
18286;SDS011;9269;50.838;12.094;2023-06-26T04:48:14;8.60;;;7.90;;
18286;SDS011;9269;50.838;12.094;2023-06-26T04:50:45;7.53;;;6.93;;
18286;SDS011;9269;50.838;12.094;2023-06-26T04:53:19;7.50;;;6.90;;
18286;SDS011;9269;50.838;12.094;2023-06-26T04:55:49;8.00;;;7.27;;
18286;SDS011;9269;50.838;12.094;2023-06-26T04:58:20;8.57;;;7.40;;
18286;SDS011;9269;50.838;12.094;2023-06-26T05:00:49;8.63;;;7.93;;
18286;SDS011;9269;50.838;12.094;2023-06-26T05:03:19;7.70;;;7.00;;
18286;SDS011;9269;50.838;12.094;2023-06-26T05:05:49;8.20;;;7.40;;
18286;SDS011;9269;50.838;12.094;2023-06-26T05:08:20;8.87;;;7.87;;
18286;SDS011;9269;50.838;12.094;2023-06-26T05:10:53;9.63;;;8.17;;
18286;SDS011;9269;50.838;12.094;2023-06-26T05:13:28;8.63;;;7.83;;
18286;SDS011;9269;50.838;12.094;2023-06-26T05:15:59;8.90;;;7.37;;
18286;SDS011;9269;50.838;12.094;2023-06-26T05:18:29;8.63;;;7.83;;
18286;SDS011;9269;50.838;12.094;2023-06-26T05:20:59;8.47;;;7.63;;
18286;SDS011;9269;50.838;12.094;2023-06-26T05:23:30;8.33;;;7.63;;
18286;SDS011;9269;50.838;12.094;2023-06-26T05:26:02;8.20;;;7.40;;
18286;SDS011;9269;50.838;12.094;2023-06-26T05:28:36;7.80;;;7.10;;
18286;SDS011;9269;50.838;12.094;2023-06-26T05:31:07;7.60;;;6.90;;
18286;SDS011;9269;50.838;12.094;2023-06-26T05:33:36;7.30;;;6.70;;
18286;SDS011;9269;50.838;12.094;2023-06-26T05:36:06;7.90;;;7.17;;
18286;SDS011;9269;50.838;12.094;2023-06-26T05:38:36;8.20;;;7.33;;
18286;SDS011;9269;50.838;12.094;2023-06-26T05:41:05;11.27;;;8.20;;
18286;SDS011;9269;50.838;12.094;2023-06-26T05:43:37;7.93;;;7.17;;
18286;SDS011;9269;50.838;12.094;2023-06-26T05:46:08;8.77;;;7.60;;
18286;SDS011;9269;50.838;12.094;2023-06-26T05:48:39;8.80;;;7.80;;
18286;SDS011;9269;50.838;12.094;2023-06-26T05:51:09;8.00;;;7.40;;
18286;SDS011;9269;50.838;12.094;2023-06-26T05:53:39;8.10;;;7.30;;
18286;SDS011;9269;50.838;12.094;2023-06-26T05:56:08;8.20;;;7.40;;
18286;SDS011;9269;50.838;12.094;2023-06-26T05:58:39;8.43;;;7.63;;
18286;SDS011;9269;50.838;12.094;2023-06-26T06:01:13;8.87;;;7.40;;
18286;SDS011;9269;50.838;12.094;2023-06-26T06:03:42;8.13;;;7.33;;
18286;SDS011;9269;50.838;12.094;2023-06-26T06:06:13;8.20;;;7.50;;
18286;SDS011;9269;50.838;12.094;2023-06-26T06:08:45;7.90;;;7.20;;
18286;SDS011;9269;50.838;12.094;2023-06-26T06:11:15;7.77;;;7.17;;
18286;SDS011;9269;50.838;12.094;2023-06-26T06:13:45;7.83;;;7.23;;
18286;SDS011;9269;50.838;12.094;2023-06-26T06:16:15;8.37;;;7.57;;
18286;SDS011;9269;50.838;12.094;2023-06-26T06:18:44;7.87;;;7.17;;
18286;SDS011;9269;50.838;12.094;2023-06-26T06:21:13;7.57;;;6.87;;
18286;SDS011;9269;50.838;12.094;2023-06-26T06:23:44;7.80;;;7.03;;
18286;SDS011;9269;50.838;12.094;2023-06-26T06:26:15;8.10;;;7.40;;
18286;SDS011;9269;50.838;12.094;2023-06-26T06:28:45;7.93;;;7.13;;
18286;SDS011;9269;50.838;12.094;2023-06-26T06:31:16;8.17;;;7.40;;
18286;SDS011;9269;50.838;12.094;2023-06-26T06:33:48;7.60;;;7.00;;
18286;SDS011;9269;50.838;12.094;2023-06-26T06:36:17;7.97;;;7.30;;
18286;SDS011;9269;50.838;12.094;2023-06-26T06:38:46;8.13;;;7.43;;
18286;SDS011;9269;50.838;12.094;2023-06-26T06:41:15;8.23;;;7.53;;
18286;SDS011;9269;50.838;12.094;2023-06-26T06:43:54;7.77;;;7.17;;
18286;SDS011;9269;50.838;12.094;2023-06-26T06:46:26;8.93;;;7.40;;
18286;SDS011;9269;50.838;12.094;2023-06-26T06:48:55;8.30;;;7.50;;
18286;SDS011;9269;50.838;12.094;2023-06-26T06:51:27;7.97;;;7.27;;
18286;SDS011;9269;50.838;12.094;2023-06-26T06:53:56;7.53;;;6.83;;
18286;SDS011;9269;50.838;12.094;2023-06-26T06:56:25;8.20;;;7.50;;
18286;SDS011;9269;50.838;12.094;2023-06-26T06:58:55;7.53;;;6.80;;
18286;SDS011;9269;50.838;12.094;2023-06-26T07:01:25;8.40;;;7.60;;
18286;SDS011;9269;50.838;12.094;2023-06-26T07:03:55;7.83;;;7.17;;
18286;SDS011;9269;50.838;12.094;2023-06-26T07:06:25;7.67;;;7.07;;
18286;SDS011;9269;50.838;12.094;2023-06-26T07:08:59;8.40;;;7.70;;
18286;SDS011;9269;50.838;12.094;2023-06-26T07:11:28;9.23;;;7.20;;
18286;SDS011;9269;50.838;12.094;2023-06-26T07:13:58;7.63;;;6.93;;
18286;SDS011;9269;50.838;12.094;2023-06-26T07:16:27;7.43;;;6.80;;
18286;SDS011;9269;50.838;12.094;2023-06-26T07:18:56;6.87;;;6.37;;
18286;SDS011;9269;50.838;12.094;2023-06-26T07:21:24;7.50;;;6.80;;
18286;SDS011;9269;50.838;12.094;2023-06-26T07:23:52;7.13;;;6.63;;
18286;SDS011;9269;50.838;12.094;2023-06-26T07:26:21;7.60;;;6.50;;
18286;SDS011;9269;50.838;12.094;2023-06-26T07:29:07;7.60;;;6.90;;
18286;SDS011;9269;50.838;12.094;2023-06-26T07:31:36;8.23;;;7.47;;
18286;SDS011;9269;50.838;12.094;2023-06-26T07:34:04;8.07;;;7.27;;
18286;SDS011;9269;50.838;12.094;2023-06-26T07:36:34;7.03;;;6.43;;
18286;SDS011;9269;50.838;12.094;2023-06-26T07:39:02;8.43;;;7.63;;
18286;SDS011;9269;50.838;12.094;2023-06-26T07:41:30;7.93;;;7.10;;
18286;SDS011;9269;50.838;12.094;2023-06-26T07:43:59;7.77;;;7.07;;
18286;SDS011;9269;50.838;12.094;2023-06-26T07:46:29;7.80;;;7.03;;
18286;SDS011;9269;50.838;12.094;2023-06-26T07:48:58;8.57;;;7.87;;
18286;SDS011;9269;50.838;12.094;2023-06-26T07:51:26;8.07;;;7.27;;
18286;SDS011;9269;50.838;12.094;2023-06-26T07:53:55;7.50;;;6.80;;
18286;SDS011;9269;50.838;12.094;2023-06-26T07:56:25;7.40;;;6.80;;
18286;SDS011;9269;50.838;12.094;2023-06-26T07:58:53;6.83;;;6.23;;
18286;SDS011;9269;50.838;12.094;2023-06-26T08:01:24;7.43;;;6.77;;
18286;SDS011;9269;50.838;12.094;2023-06-26T08:03:54;6.87;;;6.27;;
18286;SDS011;9269;50.838;12.094;2023-06-26T08:06:22;7.07;;;6.47;;
18286;SDS011;9269;50.838;12.094;2023-06-26T08:08:51;7.57;;;6.90;;
18286;SDS011;9269;50.838;12.094;2023-06-26T08:11:19;7.23;;;6.73;;
18286;SDS011;9269;50.838;12.094;2023-06-26T08:13:48;8.10;;;7.50;;
18286;SDS011;9269;50.838;12.094;2023-06-26T08:16:17;6.60;;;6.10;;
18286;SDS011;9269;50.838;12.094;2023-06-26T08:18:45;6.83;;;6.23;;
18286;SDS011;9269;50.838;12.094;2023-06-26T08:21:15;7.33;;;6.60;;
18286;SDS011;9269;50.838;12.094;2023-06-26T08:23:44;7.73;;;7.03;;
18286;SDS011;9269;50.838;12.094;2023-06-26T08:26:13;7.73;;;7.03;;
18286;SDS011;9269;50.838;12.094;2023-06-26T08:28:42;7.20;;;6.50;;
18286;SDS011;9269;50.838;12.094;2023-06-26T08:31:10;6.73;;;6.23;;
18286;SDS011;9269;50.838;12.094;2023-06-26T08:33:40;7.10;;;6.40;;
18286;SDS011;9269;50.838;12.094;2023-06-26T08:36:08;6.97;;;6.27;;
18286;SDS011;9269;50.838;12.094;2023-06-26T08:38:38;6.50;;;6.00;;
18286;SDS011;9269;50.838;12.094;2023-06-26T08:41:08;6.90;;;6.30;;
18286;SDS011;9269;50.838;12.094;2023-06-26T08:43:36;6.60;;;5.90;;
18286;SDS011;9269;50.838;12.094;2023-06-26T08:46:05;6.60;;;6.00;;
18286;SDS011;9269;50.838;12.094;2023-06-26T08:48:35;8.30;;;6.70;;
18286;SDS011;9269;50.838;12.094;2023-06-26T08:51:05;6.80;;;6.23;;
18286;SDS011;9269;50.838;12.094;2023-06-26T08:53:40;6.87;;;6.27;;
18286;SDS011;9269;50.838;12.094;2023-06-26T08:56:17;6.67;;;6.07;;
18286;SDS011;9269;50.838;12.094;2023-06-26T08:58:48;6.70;;;6.20;;
18286;SDS011;9269;50.838;12.094;2023-06-26T09:01:17;6.73;;;6.23;;
18286;SDS011;9269;50.838;12.094;2023-06-26T09:03:45;7.03;;;6.43;;
18286;SDS011;9269;50.838;12.094;2023-06-26T09:06:14;7.70;;;6.90;;
18286;SDS011;9269;50.838;12.094;2023-06-26T09:08:46;6.53;;;6.03;;
18286;SDS011;9269;50.838;12.094;2023-06-26T09:11:16;7.50;;;7.00;;
18286;SDS011;9269;50.838;12.094;2023-06-26T09:13:44;7.20;;;6.60;;
18286;SDS011;9269;50.838;12.094;2023-06-26T09:16:14;7.20;;;6.60;;
18286;SDS011;9269;50.838;12.094;2023-06-26T09:18:44;6.13;;;5.53;;
18286;SDS011;9269;50.838;12.094;2023-06-26T09:21:13;7.20;;;6.57;;
18286;SDS011;9269;50.838;12.094;2023-06-26T09:23:45;6.73;;;6.23;;
18286;SDS011;9269;50.838;12.094;2023-06-26T09:26:15;7.00;;;6.40;;
18286;SDS011;9269;50.838;12.094;2023-06-26T09:28:44;6.23;;;5.73;;
18286;SDS011;9269;50.838;12.094;2023-06-26T09:31:12;6.90;;;6.40;;
18286;SDS011;9269;50.838;12.094;2023-06-26T09:33:50;6.97;;;6.37;;
18286;SDS011;9269;50.838;12.094;2023-06-26T09:36:27;7.43;;;6.83;;
18286;SDS011;9269;50.838;12.094;2023-06-26T09:39:05;7.20;;;6.70;;
18286;SDS011;9269;50.838;12.094;2023-06-26T09:41:40;7.20;;;6.60;;
18286;SDS011;9269;50.838;12.094;2023-06-26T09:44:10;6.70;;;6.20;;
18286;SDS011;9269;50.838;12.094;2023-06-26T09:46:44;6.50;;;6.00;;
18286;SDS011;9269;50.838;12.094;2023-06-26T09:49:13;6.80;;;6.20;;
18286;SDS011;9269;50.838;12.094;2023-06-26T09:51:42;6.37;;;5.87;;
18286;SDS011;9269;50.838;12.094;2023-06-26T09:54:12;6.10;;;5.50;;
18286;SDS011;9269;50.838;12.094;2023-06-26T09:56:44;6.47;;;5.97;;
18286;SDS011;9269;50.838;12.094;2023-06-26T09:59:12;6.00;;;5.60;;
18286;SDS011;9269;50.838;12.094;2023-06-26T10:01:46;6.70;;;6.20;;
18286;SDS011;9269;50.838;12.094;2023-06-26T10:04:15;6.57;;;5.93;;
18286;SDS011;9269;50.838;12.094;2023-06-26T10:06:45;5.93;;;5.53;;
18286;SDS011;9269;50.838;12.094;2023-06-26T10:09:17;5.77;;;5.37;;
18286;SDS011;9269;50.838;12.094;2023-06-26T10:11:48;6.20;;;5.80;;
18286;SDS011;9269;50.838;12.094;2023-06-26T10:14:24;6.10;;;5.60;;
18286;SDS011;9269;50.838;12.094;2023-06-26T10:16:56;5.97;;;5.47;;
18286;SDS011;9269;50.838;12.094;2023-06-26T10:19:27;6.10;;;5.60;;
18286;SDS011;9269;50.838;12.094;2023-06-26T10:21:58;5.77;;;5.37;;
18286;SDS011;9269;50.838;12.094;2023-06-26T10:24:29;5.93;;;5.43;;
18286;SDS011;9269;50.838;12.094;2023-06-26T10:27:02;5.63;;;5.17;;
18286;SDS011;9269;50.838;12.094;2023-06-26T10:29:36;6.40;;;5.90;;
18286;SDS011;9269;50.838;12.094;2023-06-26T10:32:06;6.00;;;5.43;;
18286;SDS011;9269;50.838;12.094;2023-06-26T10:34:39;6.00;;;5.50;;
18286;SDS011;9269;50.838;12.094;2023-06-26T10:37:08;5.77;;;5.37;;
18286;SDS011;9269;50.838;12.094;2023-06-26T10:39:48;5.90;;;5.40;;
18286;SDS011;9269;50.838;12.094;2023-06-26T10:42:18;5.60;;;5.20;;
18286;SDS011;9269;50.838;12.094;2023-06-26T10:44:48;5.83;;;5.40;;
18286;SDS011;9269;50.838;12.094;2023-06-26T10:47:29;6.00;;;5.50;;
18286;SDS011;9269;50.838;12.094;2023-06-26T10:53:07;6.27;;;5.87;;
18286;SDS011;9269;50.838;12.094;2023-06-26T10:55:40;6.10;;;5.70;;
18286;SDS011;9269;50.838;12.094;2023-06-26T10:58:29;6.03;;;5.53;;
18286;SDS011;9269;50.838;12.094;2023-06-26T11:01:14;6.70;;;6.20;;
18286;SDS011;9269;50.838;12.094;2023-06-26T11:03:46;6.53;;;6.03;;
18286;SDS011;9269;50.838;12.094;2023-06-26T11:06:18;6.27;;;5.77;;
18286;SDS011;9269;50.838;12.094;2023-06-26T11:08:48;6.40;;;5.90;;
18286;SDS011;9269;50.838;12.094;2023-06-26T11:11:19;6.30;;;5.80;;
18286;SDS011;9269;50.838;12.094;2023-06-26T11:13:50;6.33;;;5.83;;
18286;SDS011;9269;50.838;12.094;2023-06-26T11:16:19;6.10;;;5.70;;
18286;SDS011;9269;50.838;12.094;2023-06-26T11:18:47;6.17;;;5.77;;
18286;SDS011;9269;50.838;12.094;2023-06-26T11:21:18;6.30;;;5.80;;
18286;SDS011;9269;50.838;12.094;2023-06-26T11:23:50;6.60;;;6.10;;
18286;SDS011;9269;50.838;12.094;2023-06-26T11:26:26;6.73;;;6.23;;
18286;SDS011;9269;50.838;12.094;2023-06-26T11:28:55;7.10;;;6.43;;
18286;SDS011;9269;50.838;12.094;2023-06-26T11:31:25;5.97;;;5.57;;
18286;SDS011;9269;50.838;12.094;2023-06-26T11:34:02;6.53;;;6.03;;
18286;SDS011;9269;50.838;12.094;2023-06-26T11:36:31;7.30;;;6.67;;
18286;SDS011;9269;50.838;12.094;2023-06-26T11:39:04;7.10;;;6.60;;
18286;SDS011;9269;50.838;12.094;2023-06-26T11:41:36;6.77;;;6.37;;
18286;SDS011;9269;50.838;12.094;2023-06-26T11:44:05;6.20;;;5.80;;
18286;SDS011;9269;50.838;12.094;2023-06-26T11:46:35;5.70;;;5.30;;
18286;SDS011;9269;50.838;12.094;2023-06-26T11:49:05;7.13;;;6.20;;
18286;SDS011;9269;50.838;12.094;2023-06-26T11:51:34;6.33;;;5.83;;
18286;SDS011;9269;50.838;12.094;2023-06-26T11:54:04;6.07;;;5.57;;
18286;SDS011;9269;50.838;12.094;2023-06-26T11:56:33;6.53;;;6.03;;
18286;SDS011;9269;50.838;12.094;2023-06-26T11:59:03;6.30;;;5.80;;
18286;SDS011;9269;50.838;12.094;2023-06-26T12:01:38;6.10;;;5.70;;
18286;SDS011;9269;50.838;12.094;2023-06-26T12:04:08;6.13;;;5.72;;
18286;SDS011;9269;50.838;12.094;2023-06-26T12:06:40;6.03;;;5.55;;
18286;SDS011;9269;50.838;12.094;2023-06-26T12:09:12;6.32;;;5.78;;
18286;SDS011;9269;50.838;12.094;2023-06-26T12:11:42;6.40;;;5.93;;
18286;SDS011;9269;50.838;12.094;2023-06-26T12:14:13;6.07;;;5.68;;
18286;SDS011;9269;50.838;12.094;2023-06-26T12:16:43;6.13;;;5.63;;
18286;SDS011;9269;50.838;12.094;2023-06-26T12:19:12;5.93;;;5.50;;
18286;SDS011;9269;50.838;12.094;2023-06-26T12:21:46;6.50;;;5.90;;
18286;SDS011;9269;50.838;12.094;2023-06-26T12:24:19;6.03;;;5.55;;
18286;SDS011;9269;50.838;12.094;2023-06-26T12:26:52;5.95;;;5.55;;
18286;SDS011;9269;50.838;12.094;2023-06-26T12:29:31;5.72;;;5.25;;
18286;SDS011;9269;50.838;12.094;2023-06-26T12:32:00;6.10;;;5.63;;
18286;SDS011;9269;50.838;12.094;2023-06-26T12:34:30;6.10;;;5.70;;
18286;SDS011;9269;50.838;12.094;2023-06-26T12:37:01;6.35;;;5.75;;
18286;SDS011;9269;50.838;12.094;2023-06-26T12:39:44;6.18;;;5.68;;
18286;SDS011;9269;50.838;12.094;2023-06-26T12:42:15;6.00;;;5.60;;
18286;SDS011;9269;50.838;12.094;2023-06-26T12:44:47;5.80;;;5.40;;
18286;SDS011;9269;50.838;12.094;2023-06-26T12:47:17;5.90;;;5.50;;
18286;SDS011;9269;50.838;12.094;2023-06-26T12:49:51;6.30;;;5.80;;
18286;SDS011;9269;50.838;12.094;2023-06-26T12:52:20;6.68;;;6.18;;
18286;SDS011;9269;50.838;12.094;2023-06-26T12:54:51;5.78;;;5.38;;
18286;SDS011;9269;50.838;12.094;2023-06-26T12:57:21;6.07;;;5.57;;
18286;SDS011;9269;50.838;12.094;2023-06-26T12:59:51;6.82;;;6.32;;
18286;SDS011;9269;50.838;12.094;2023-06-26T13:02:20;5.75;;;5.30;;
18286;SDS011;9269;50.838;12.094;2023-06-26T13:04:49;6.55;;;6.05;;
18286;SDS011;9269;50.838;12.094;2023-06-26T13:07:18;6.63;;;5.90;;
18286;SDS011;9269;50.838;12.094;2023-06-26T13:09:46;6.18;;;5.68;;
18286;SDS011;9269;50.838;12.094;2023-06-26T13:12:15;6.45;;;5.95;;
18286;SDS011;9269;50.838;12.094;2023-06-26T13:14:44;6.05;;;5.65;;
18286;SDS011;9269;50.838;12.094;2023-06-26T13:17:14;5.72;;;5.32;;
18286;SDS011;9269;50.838;12.094;2023-06-26T13:19:42;6.22;;;5.72;;
18286;SDS011;9269;50.838;12.094;2023-06-26T13:22:14;5.70;;;5.30;;
18286;SDS011;9269;50.838;12.094;2023-06-26T13:24:43;6.28;;;5.82;;
18286;SDS011;9269;50.838;12.094;2023-06-26T13:27:11;6.10;;;5.70;;
18286;SDS011;9269;50.838;12.094;2023-06-26T13:29:40;6.20;;;5.80;;
18286;SDS011;9269;50.838;12.094;2023-06-26T13:32:10;6.50;;;6.00;;
18286;SDS011;9269;50.838;12.094;2023-06-26T13:34:39;6.22;;;5.82;;
18286;SDS011;9269;50.838;12.094;2023-06-26T13:37:09;6.50;;;6.00;;
18286;SDS011;9269;50.838;12.094;2023-06-26T13:39:38;6.32;;;5.82;;
18286;SDS011;9269;50.838;12.094;2023-06-26T13:42:07;6.60;;;6.17;;
18286;SDS011;9269;50.838;12.094;2023-06-26T13:44:37;6.63;;;6.07;;
18286;SDS011;9269;50.838;12.094;2023-06-26T13:47:26;6.43;;;5.93;;
18286;SDS011;9269;50.838;12.094;2023-06-26T13:49:56;6.05;;;5.55;;
18286;SDS011;9269;50.838;12.094;2023-06-26T13:52:24;6.70;;;6.20;;
18286;SDS011;9269;50.838;12.094;2023-06-26T13:54:52;6.40;;;5.85;;
18286;SDS011;9269;50.838;12.094;2023-06-26T13:57:21;6.28;;;5.78;;
18286;SDS011;9269;50.838;12.094;2023-06-26T13:59:51;6.63;;;6.05;;
18286;SDS011;9269;50.838;12.094;2023-06-26T14:02:19;6.00;;;5.50;;
18286;SDS011;9269;50.838;12.094;2023-06-26T14:04:48;6.35;;;5.85;;
18286;SDS011;9269;50.838;12.094;2023-06-26T14:07:18;6.43;;;5.93;;
18286;SDS011;9269;50.838;12.094;2023-06-26T14:09:46;5.93;;;5.53;;
18286;SDS011;9269;50.838;12.094;2023-06-26T14:12:14;9.70;;;9.00;;
18286;SDS011;9269;50.838;12.094;2023-06-26T14:14:44;7.17;;;6.57;;
18286;SDS011;9269;50.838;12.094;2023-06-26T14:17:12;7.07;;;6.50;;
18286;SDS011;9269;50.838;12.094;2023-06-26T14:19:42;7.40;;;6.80;;
18286;SDS011;9269;50.838;12.094;2023-06-26T14:22:12;11.40;;;7.40;;
18286;SDS011;9269;50.838;12.094;2023-06-26T14:24:42;7.20;;;6.50;;
18286;SDS011;9269;50.838;12.094;2023-06-26T14:27:11;11.73;;;6.57;;
18286;SDS011;9269;50.838;12.094;2023-06-26T14:29:39;8.33;;;6.50;;
18286;SDS011;9269;50.838;12.094;2023-06-26T14:32:08;8.30;;;6.40;;
18286;SDS011;9269;50.838;12.094;2023-06-26T14:34:36;7.40;;;6.70;;
18286;SDS011;9269;50.838;12.094;2023-06-26T14:37:05;8.63;;;7.10;;
18286;SDS011;9269;50.838;12.094;2023-06-26T14:39:33;8.30;;;7.50;;
18286;SDS011;9269;50.838;12.094;2023-06-26T14:42:04;9.37;;;7.03;;
18286;SDS011;9269;50.838;12.094;2023-06-26T14:44:33;8.57;;;7.33;;
18286;SDS011;9269;50.838;12.094;2023-06-26T14:47:05;8.37;;;7.67;;
18286;SDS011;9269;50.838;12.094;2023-06-26T14:49:33;9.20;;;7.30;;
18286;SDS011;9269;50.838;12.094;2023-06-26T14:52:02;7.77;;;7.03;;
18286;SDS011;9269;50.838;12.094;2023-06-26T14:54:30;7.90;;;7.20;;
18286;SDS011;9269;50.838;12.094;2023-06-26T14:57:01;7.87;;;7.17;;
18286;SDS011;9269;50.838;12.094;2023-06-26T14:59:31;8.03;;;7.23;;
18286;SDS011;9269;50.838;12.094;2023-06-26T15:02:00;8.87;;;7.90;;
18286;SDS011;9269;50.838;12.094;2023-06-26T15:04:29;8.00;;;7.23;;
18286;SDS011;9269;50.838;12.094;2023-06-26T15:07:00;8.00;;;7.20;;